Aviation Digital Data Service (ADDS)

Output produced by METARs form (1858 UTC 24 April 2017)
found at http://aviationweather.gov/adds/metars/
 
KPQI 241720Z 2418/2518 31007KT P6SM SCT250 
     FM250300 02004KT P6SM SCT250 
     FM251300 08004KT P6SM SCT250 
     FM251500 14006KT P6SM SCT250